Time;durP1;ratioP1;P1;durP2;ratioP2;P2;SDS_P1;SDS_P2;PMS_P1;PMS_P2;Temp;Humidity;BMP_temperature;BMP_pressure;BME280_temperature;BME280_humidity;BME280_pressure;Samples;Min_cycle;Max_cycle;Signal;HPM_P1;HPM_P2
2023/01/09 00:00:46;;;;;;;2.13;1.15;;;;;;;;;;4953046;28;20027;-83
2023/01/09 00:03:12;;;;;;;1.77;1.00;;;;;;;;;;4960232;28;20030;-85
2023/01/09 00:05:38;;;;;;;2.08;1.10;;;9.50;99.90;;;;;;4962497;28;20450;-85
2023/01/09 00:08:04;;;;;;;4.07;1.40;;;;;;;;;;4976638;28;20069;-85
2023/01/09 00:10:33;;;;;;;3.95;1.83;;;;;;;;;;4961521;28;20114;-85
2023/01/09 00:12:59;;;;;;;2.15;1.10;;;;;;;;;;4960131;28;20031;-84
2023/01/09 00:15:25;;;;;;;2.05;1.00;;;;;;;;;;4956627;28;20027;-85
2023/01/09 00:17:51;;;;;;;2.05;0.90;;;;;;;;;;4967812;28;20057;-85
2023/01/09 00:20:20;;;;;;;1.60;1.00;;;;;;;;;;4969851;28;20030;-84
2023/01/09 00:22:46;;;;;;;2.25;1.13;;;;;;;;;;4958574;28;20030;-85
2023/01/09 00:25:12;;;;;;;1.50;0.90;;;9.50;99.90;;;;;;4969513;28;20042;-86
2023/01/09 00:27:38;;;;;;;1.00;0.63;;;9.50;99.90;;;;;;4960786;28;20022;-86
2023/01/09 00:30:04;;;;;;;1.55;0.80;;;;;;;;;;4977963;28;20031;-85
2023/01/09 00:32:31;;;;;;;1.45;0.80;;;9.50;99.90;;;;;;4959733;28;20027;-86
2023/01/09 00:34:57;;;;;;;3.17;0.90;;;9.40;99.90;;;;;;4977175;28;20550;-86
2023/01/09 00:37:23;;;;;;;1.55;0.90;;;9.40;99.90;;;;;;4982461;28;20094;-83
2023/01/09 00:39:49;;;;;;;1.52;0.70;;;9.30;99.90;;;;;;4958682;28;20031;-83
2023/01/09 00:42:20;;;;;;;0.82;0.70;;;9.40;99.90;;;;;;4957321;28;20023;-86
2023/01/09 00:44:50;;;;;;;2.05;0.90;;;9.40;99.90;;;;;;4963964;28;20050;-86
2023/01/09 00:47:26;;;;;;;1.10;0.77;;;9.40;99.90;;;;;;4979676;28;20023;-86
2023/01/09 00:49:54;;;;;;;1.92;0.70;;;10.90;99.90;;;;;;4960032;28;20270;-85
2023/01/09 00:52:20;;;;;;;1.70;0.60;;;;;;;;;;4964283;28;20038;-87
2023/01/09 00:54:46;;;;;;;1.08;0.50;;;9.40;99.90;;;;;;4963261;28;20031;-86
2023/01/09 00:57:13;;;;;;;0.40;0.40;;;9.40;99.90;;;;;;4962704;28;20062;-83
2023/01/09 00:59:40;;;;;;;0.75;0.50;;;9.40;99.90;;;;;;4975515;28;20030;-85
2023/01/09 01:02:06;;;;;;;1.20;0.57;;;9.20;99.90;;;;;;4960349;28;20495;-82
2023/01/09 01:10:00;;;;;;;0.90;0.55;;;9.10;99.90;;;;;;4979593;28;20574;-85
2023/01/09 01:12:26;;;;;;;1.17;0.50;;;9.20;99.90;;;;;;4951336;28;20027;-85
2023/01/09 01:14:52;;;;;;;0.98;0.40;;;9.20;99.90;;;;;;4963337;28;20077;-83
2023/01/09 01:17:18;;;;;;;0.47;0.40;;;9.10;99.90;;;;;;4961074;28;20031;-84
2023/01/09 01:19:44;;;;;;;2.67;0.60;;;;;;;;;;4983848;28;20573;-83
2023/01/09 01:22:10;;;;;;;0.73;0.50;;;;;;;;;;4965592;28;20034;-84
2023/01/09 01:24:36;;;;;;;1.17;0.50;;;8.90;99.90;;;;;;4963952;28;20031;-84
2023/01/09 01:27:02;;;;;;;0.77;0.43;;;9.00;99.90;;;;;;4965296;28;20011;-83
2023/01/09 01:29:28;;;;;;;1.00;0.57;;;;;;;;;;4964738;28;20114;-84
2023/01/09 01:31:54;;;;;;;0.52;0.43;;;;;;;;;;4955929;28;20042;-81
2023/01/09 01:34:20;;;;;;;0.35;0.35;;;9.10;99.90;;;;;;4965565;28;20027;-84
2023/01/09 01:36:45;;;;;;;0.60;0.40;;;9.10;99.90;;;;;;4958957;28;20034;-83
2023/01/09 01:39:11;;;;;;;4.22;0.70;;;9.10;99.90;;;;;;4959466;28;20034;-81
2023/01/09 01:41:37;;;;;;;1.48;0.60;;;9.20;99.90;;;;;;4965163;28;20086;-82
2023/01/09 01:44:41;;;;;;;2.20;0.60;;;9.20;99.90;;;;;;4963795;28;20047;-85
2023/01/09 01:47:07;;;;;;;0.70;0.50;;;9.20;99.90;;;;;;4973459;28;20029;-83
2023/01/09 01:49:32;;;;;;;1.33;0.60;;;9.20;99.90;;;;;;4975072;28;20544;-85
2023/01/09 01:51:58;;;;;;;1.98;0.60;;;9.10;99.90;;;;;;4967218;28;20407;-84
2023/01/09 01:54:28;;;;;;;2.88;0.60;;;9.00;99.90;;;;;;4982009;28;20031;-83
2023/01/09 01:56:57;;;;;;;1.75;0.50;;;9.80;99.90;;;;;;4962999;28;20031;-84
2023/01/09 01:59:27;;;;;;;0.88;0.40;;;9.10;99.90;;;;;;4974147;28;20030;-84
2023/01/09 02:01:56;;;;;;;1.65;0.50;;;9.10;99.90;;;;;;4963065;28;20070;-84
2023/01/09 02:04:22;;;;;;;0.32;0.32;;;9.00;99.90;;;;;;4973954;28;20034;-83
2023/01/09 02:06:51;;;;;;;2.05;0.43;;;9.10;99.90;;;;;;4960403;28;20058;-83
2023/01/09 02:09:21;;;;;;;1.05;0.52;;;10.30;99.90;;;;;;4966658;28;20015;-85
2023/01/09 02:11:51;;;;;;;2.03;0.50;;;9.50;99.90;;;;;;4962447;28;20027;-85
2023/01/09 02:14:20;;;;;;;0.95;0.50;;;11.70;99.90;;;;;;4973851;28;20282;-83
2023/01/09 02:17:10;;;;;;;0.95;0.43;;;8.90;99.90;;;;;;4983455;28;20031;-84
2023/01/09 02:19:48;;;;;;;0.52;0.32;;;8.90;99.90;;;;;;4954737;28;20039;-85
2023/01/09 02:22:39;;;;;;;0.80;0.40;;;9.00;99.90;;;;;;4967360;28;20039;-87
2023/01/09 02:25:37;;;;;;;0.45;0.38;;;9.00;99.90;;;;;;4962244;28;20030;-85
2023/01/09 02:28:38;;;;;;;1.10;0.50;;;8.90;99.90;;;;;;4961631;28;20119;-83
2023/01/09 02:31:18;;;;;;;0.88;0.50;;;9.00;99.90;;;;;;4958483;28;20031;-85
2023/01/09 02:34:21;;;;;;;0.40;0.40;;;11.90;99.90;;;;;;4969324;28;20719;-84
2023/01/09 02:37:01;;;;;;;0.40;0.40;;;8.90;99.90;;;;;;4958109;28;20283;-84
2023/01/09 02:39:50;;;;;;;1.10;0.50;;;8.90;99.90;;;;;;4957245;28;20492;-85
2023/01/09 02:42:20;;;;;;;0.47;0.40;;;8.90;99.90;;;;;;4967662;28;20046;-85
2023/01/09 02:44:46;;;;;;;0.50;0.40;;;8.80;99.90;;;;;;4965564;28;20019;-84
2023/01/09 02:47:14;;;;;;;0.80;0.50;;;8.80;99.90;;;;;;4964350;28;20062;-82
2023/01/09 02:49:42;;;;;;;1.38;0.40;;;9.80;99.90;;;;;;4968079;28;20085;-84
2023/01/09 02:52:32;;;;;;;0.38;0.30;;;8.80;99.90;;;;;;4972805;28;20047;-86
2023/01/09 02:55:11;;;;;;;0.60;0.40;;;8.80;99.90;;;;;;4973945;28;20055;-85
2023/01/09 02:57:40;;;;;;;1.00;0.60;;;8.80;99.90;;;;;;4962505;28;20038;-84
2023/01/09 03:00:47;;;;;;;0.75;0.43;;;9.40;99.90;;;;;;4963641;28;20549;-83
2023/01/09 03:03:24;;;;;;;1.27;0.70;;;8.70;99.90;;;;;;4962408;28;20038;-82
2023/01/09 03:05:59;;;;;;;0.82;0.43;;;8.80;99.90;;;;;;4962936;28;20027;-84
2023/01/09 03:08:35;;;;;;;3.40;0.50;;;9.60;99.90;;;;;;4964453;28;20043;-84
2023/01/09 03:11:03;;;;;;;1.80;0.57;;;8.70;99.90;;;;;;4968243;28;20034;-85
2023/01/09 03:13:45;;;;;;;1.88;0.68;;;8.90;99.90;;;;;;4942446;28;20082;-85
2023/01/09 03:16:16;;;;;;;1.48;0.50;;;8.60;99.90;;;;;;4954695;29;20059;-84
2023/01/09 03:18:44;;;;;;;2.70;0.57;;;9.00;99.90;;;;;;4957862;28;20027;-89
2023/01/09 03:21:11;;;;;;;1.98;0.60;;;8.50;99.90;;;;;;4960727;28;20034;-87
2023/01/09 03:23:54;;;;;;;0.73;0.50;;;9.80;99.90;;;;;;4964524;28;20027;-85
2023/01/09 03:26:20;;;;;;;3.78;0.73;;;8.30;99.90;;;;;;4959678;28;20034;-84
2023/01/09 03:28:46;;;;;;;1.17;0.57;;;11.10;99.90;;;;;;4959803;28;20030;-87
2023/01/09 03:31:12;;;;;;;2.35;0.68;;;8.50;99.90;;;;;;4962566;28;20058;-83
2023/01/09 03:33:38;;;;;;;1.27;0.63;;;12.10;99.90;;;;;;4965424;28;20077;-85
2023/01/09 03:36:05;;;;;;;1.55;0.57;;;10.10;99.90;;;;;;4957961;28;20034;-86
2023/01/09 03:38:30;;;;;;;2.72;0.80;;;8.50;99.90;;;;;;4960723;28;20654;-86
2023/01/09 03:40:56;;;;;;;1.08;0.50;;;9.30;99.90;;;;;;4971026;28;20042;-83
2023/01/09 03:43:22;;;;;;;3.17;0.80;;;8.60;99.90;;;;;;4958417;28;20027;-84
2023/01/09 03:45:47;;;;;;;2.15;0.73;;;8.60;99.90;;;;;;4959654;28;20019;-84
2023/01/09 03:48:13;;;;;;;2.83;0.65;;;9.00;99.90;;;;;;4958276;28;20447;-87
2023/01/09 03:50:41;;;;;;;3.38;0.65;;;8.60;99.90;;;;;;4973445;28;20074;-84
2023/01/09 03:53:07;;;;;;;1.15;0.50;;;8.40;99.90;;;;;;4954355;28;20049;-86
2023/01/09 03:55:32;;;;;;;4.53;0.80;;;10.10;99.90;;;;;;4972405;28;20492;-83
2023/01/09 03:57:58;;;;;;;6.85;1.42;;;8.30;99.90;;;;;;4947286;28;20038;-83
2023/01/09 04:00:24;;;;;;;3.88;0.80;;;8.50;99.90;;;;;;4960958;28;20044;-82
2023/01/09 04:02:49;;;;;;;3.40;0.80;;;8.10;99.90;;;;;;4962818;28;20050;-80
2023/01/09 04:05:15;;;;;;;3.47;0.80;;;8.00;99.90;;;;;;4965318;28;20586;-80
2023/01/09 04:07:41;;;;;;;4.28;0.68;;;8.00;99.90;;;;;;4959556;28;20031;-84
2023/01/09 04:10:07;;;;;;;4.72;0.85;;;8.00;99.90;;;;;;4965485;28;20510;-88
2023/01/09 04:12:32;;;;;;;4.30;0.93;;;8.10;99.90;;;;;;4960174;28;20534;-85
2023/01/09 04:14:58;;;;;;;5.68;0.88;;;;;;;;;;4953208;28;20031;-83
2023/01/09 04:17:24;;;;;;;2.92;0.57;;;8.00;99.90;;;;;;4989492;28;20031;-85
2023/01/09 04:19:50;;;;;;;4.35;0.80;;;7.90;99.90;;;;;;4984194;28;20078;-85
2023/01/09 04:22:15;;;;;;;6.80;1.20;;;8.90;99.90;;;;;;4979734;28;20034;-86
2023/01/09 04:24:41;;;;;;;4.70;0.90;;;8.10;99.90;;;;;;4973568;28;20031;-85
2023/01/09 04:27:06;;;;;;;9.48;1.25;;;8.00;99.90;;;;;;4966804;28;20077;-85
2023/01/09 04:29:32;;;;;;;3.65;0.80;;;8.00;99.90;;;;;;4961373;28;20079;-84
2023/01/09 04:31:58;;;;;;;3.53;1.15;;;7.90;99.90;;;;;;4982475;28;20034;-83
2023/01/09 04:34:24;;;;;;;5.07;1.20;;;9.20;99.90;;;;;;4962236;28;20033;-83
2023/01/09 04:36:53;;;;;;;4.45;0.70;;;7.80;99.90;;;;;;4963831;28;20030;-84
2023/01/09 04:39:20;;;;;;;3.05;0.65;;;7.70;99.90;;;;;;4959339;28;20035;-81
2023/01/09 04:41:48;;;;;;;5.28;1.17;;;7.70;99.90;;;;;;4960365;28;20029;-85
2023/01/09 04:44:21;;;;;;;2.70;0.77;;;7.70;99.90;;;;;;4962482;28;20115;-84
2023/01/09 04:46:47;;;;;;;7.45;1.38;;;7.70;99.90;;;;;;4957324;28;20034;-83
2023/01/09 04:49:14;;;;;;;4.72;1.15;;;7.70;99.90;;;;;;4966653;28;20039;-86
2023/01/09 04:51:40;;;;;;;5.50;0.80;;;7.70;99.90;;;;;;4960412;28;20500;-84
2023/01/09 04:54:06;;;;;;;6.53;1.00;;;7.70;99.90;;;;;;4984293;28;20122;-83
2023/01/09 04:56:31;;;;;;;4.82;1.05;;;7.60;99.90;;;;;;4965159;28;20034;-82
2023/01/09 04:58:57;;;;;;;5.00;0.95;;;8.50;99.90;;;;;;4976741;28;20037;-83
2023/01/09 05:01:25;;;;;;;3.60;1.15;;;7.90;99.90;;;;;;4976076;28;20031;-85
2023/01/09 05:03:51;;;;;;;9.02;1.38;;;7.70;99.90;;;;;;4962602;28;20033;-80
2023/01/09 05:06:16;;;;;;;6.22;1.02;;;7.60;99.90;;;;;;4965505;28;20027;-84
2023/01/09 05:08:42;;;;;;;7.85;1.20;;;7.40;99.90;;;;;;4958624;28;20114;-81
2023/01/09 05:11:07;;;;;;;4.47;1.60;;;8.10;99.90;;;;;;4969420;28;20035;-83
2023/01/09 05:13:34;;;;;;;6.57;1.10;;;8.20;99.90;;;;;;4964299;28;20072;-84
2023/01/09 05:15:59;;;;;;;7.78;1.13;;;9.50;99.90;;;;;;4960856;28;20045;-82
2023/01/09 05:18:25;;;;;;;6.75;1.25;;;7.30;99.90;;;;;;4974528;28;20030;-84
2023/01/09 05:20:50;;;;;;;9.57;1.45;;;8.80;99.90;;;;;;4967980;28;20038;-84
2023/01/09 05:23:16;;;;;;;5.10;0.93;;;7.30;99.90;;;;;;4970239;28;20023;-85
2023/01/09 05:25:42;;;;;;;7.63;1.40;;;8.60;99.90;;;;;;4966004;28;20023;-82
2023/01/09 05:28:08;;;;;;;6.38;1.30;;;7.40;99.90;;;;;;4963898;28;20023;-82
2023/01/09 05:30:33;;;;;;;9.38;1.60;;;7.40;99.90;;;;;;4965260;28;20058;-87
2023/01/09 05:32:59;;;;;;;9.05;2.00;;;7.40;99.90;;;;;;4967823;28;20038;-81
2023/01/09 05:35:25;;;;;;;5.75;1.10;;;;;;;;;;4973568;23;20027;-87
2023/01/09 05:37:51;;;;;;;8.52;1.35;;;7.20;99.90;;;;;;4990737;28;20031;-88
2023/01/09 05:40:16;;;;;;;5.65;1.13;;;7.20;99.90;;;;;;4971756;28;20082;-86
2023/01/09 05:42:43;;;;;;;11.63;1.30;;;;;;;;;;4972019;28;20053;-88
2023/01/09 05:45:09;;;;;;;5.80;1.23;;;7.20;99.90;;;;;;4950481;28;20839;-88
2023/01/09 05:47:35;;;;;;;6.85;1.33;;;7.30;99.90;;;;;;4950454;28;20038;-89
2023/01/09 05:50:01;;;;;;;7.53;1.27;;;;;;;;;;4968558;28;20016;-85
2023/01/09 05:52:27;;;;;;;3.80;1.13;;;;;;;;;;4943731;29;20039;-83
2023/01/09 05:54:53;;;;;;;7.05;2.03;;;;;;;;;;4944453;28;20023;-86
2023/01/09 05:57:19;;;;;;;9.93;1.48;;;7.30;99.90;;;;;;4959204;28;20028;-86
2023/01/09 05:59:45;;;;;;;7.00;1.45;;;;;;;;;;4943832;28;20055;-87
2023/01/09 06:02:11;;;;;;;6.28;1.20;;;7.30;99.90;;;;;;4942419;29;20035;-86
2023/01/09 06:04:37;;;;;;;6.72;1.20;;;7.30;99.90;;;;;;4958479;28;20056;-86
2023/01/09 06:07:03;;;;;;;8.73;2.20;;;;;;;;;;4959820;28;20039;-84
2023/01/09 06:09:30;;;;;;;7.65;1.55;;;;;;;;;;4944841;29;20023;-86
2023/01/09 06:11:56;;;;;;;10.70;1.60;;;;;;;;;;4960878;28;20416;-84
2023/01/09 06:14:22;;;;;;;10.18;1.63;;;7.20;99.90;;;;;;4958702;28;20039;-88
2023/01/09 06:16:48;;;;;;;7.80;1.60;;;;;;;;;;4944615;28;20031;-88
2023/01/09 06:19:13;;;;;;;15.30;3.00;;;7.20;99.90;;;;;;4932886;28;20030;-88
2023/01/09 06:21:39;;;;;;;7.95;1.60;;;;;;;;;;4944254;28;20079;-90
2023/01/09 06:24:05;;;;;;;11.90;1.98;;;7.20;99.90;;;;;;4942948;29;20023;-88
2023/01/09 06:26:32;;;;;;;9.75;1.92;;;7.20;99.90;;;;;;4955903;28;20074;-89
2023/01/09 06:28:59;;;;;;;7.53;1.42;;;7.20;99.90;;;;;;4959609;28;20067;-87
2023/01/09 06:31:25;;;;;;;11.63;2.13;;;7.70;99.90;;;;;;4962603;28;20055;-86
2023/01/09 06:33:51;;;;;;;11.32;1.50;;;;;;;;;;4946247;28;20043;-89
2023/01/09 06:36:17;;;;;;;9.00;1.85;;;;;;;;;;4943961;29;20464;-86
2023/01/09 06:38:43;;;;;;;10.40;1.90;;;7.20;99.90;;;;;;4962201;28;20051;-85
2023/01/09 06:41:09;;;;;;;9.20;2.08;;;;;;;;;;4945238;29;20048;-84
2023/01/09 06:43:35;;;;;;;10.80;2.10;;;;;;;;;;4943472;28;20047;-83
2023/01/09 06:46:01;;;;;;;10.00;2.15;;;7.30;99.90;;;;;;4949848;28;20042;-86
2023/01/09 06:48:27;;;;;;;11.55;1.98;;;;;;;;;;4959674;28;20035;-90
2023/01/09 06:50:53;;;;;;;6.72;1.70;;;;;;;;;;4944694;28;20024;-88
2023/01/09 06:53:19;;;;;;;13.10;1.98;;;7.20;99.90;;;;;;4950232;28;20095;-86
2023/01/09 06:55:45;;;;;;;7.18;1.80;;;;;;;;;;4967909;28;20074;-86
2023/01/09 06:58:11;;;;;;;8.30;1.92;;;7.20;99.90;;;;;;4942449;28;20027;-88
2023/01/09 07:00:37;;;;;;;9.35;1.85;;;10.70;99.90;;;;;;4956686;28;20095;-85
2023/01/09 07:03:03;;;;;;;10.43;1.80;;;;;;;;;;4935644;29;20039;-84
2023/01/09 07:05:30;;;;;;;10.82;1.70;;;;;;;;;;4945416;29;20004;-87
2023/01/09 07:07:56;;;;;;;12.00;2.28;;;;;;;;;;4951993;28;20043;-86
2023/01/09 07:10:22;;;;;;;13.77;2.33;;;7.50;99.90;;;;;;4963796;28;20031;-87
2023/01/09 07:12:48;;;;;;;11.43;2.38;;;;;;;;;;4943935;28;20012;-87
2023/01/09 07:15:14;;;;;;;15.27;2.40;;;;;;;;;;4946314;29;20107;-91
2023/01/09 07:17:40;;;;;;;6.90;1.80;;;;;;;;;;4956256;28;20020;-88
2023/01/09 07:20:07;;;;;;;9.10;2.05;;;7.60;99.90;;;;;;4951564;28;20035;-87
2023/01/09 07:22:33;;;;;;;15.10;2.22;;;;;;;;;;4945452;28;20022;-87
2023/01/09 07:24:59;;;;;;;9.65;2.08;;;;;;;;;;4941228;29;20023;-88
2023/01/09 07:27:25;;;;;;;8.15;2.17;;;;;;;;;;4946012;28;20058;-85
2023/01/09 07:29:52;;;;;;;8.68;1.70;;;;;;;;;;4959118;28;20042;-85
2023/01/09 07:32:19;;;;;;;10.00;1.70;;;;;;;;;;4964413;28;20018;-85
2023/01/09 07:34:44;;;;;;;5.05;1.70;;;7.30;99.90;;;;;;4940792;28;20027;-90
2023/01/09 07:37:10;;;;;;;6.93;1.85;;;;;;;;;;4959185;28;20108;-85
2023/01/09 07:39:36;;;;;;;7.85;1.83;;;;;;;;;;4944989;28;20028;-90
2023/01/09 07:42:02;;;;;;;8.88;2.03;;;;;;;;;;4953001;28;20046;-90
2023/01/09 07:44:28;;;;;;;6.75;2.03;;;;;;;;;;4954423;28;20141;-87
2023/01/09 07:46:54;;;;;;;5.32;1.42;;;;;;;;;;4953822;28;20018;-87
2023/01/09 07:49:20;;;;;;;8.65;2.20;;;;;;;;;;4960695;28;20123;-90
2023/01/09 07:51:47;;;;;;;5.93;1.70;;;;;;;;;;4949500;28;20051;-90
2023/01/09 07:54:13;;;;;;;5.10;1.80;;;;;;;;;;4950484;28;20019;-89
2023/01/09 07:56:41;;;;;;;7.60;2.20;;;7.40;99.90;;;;;;4948883;28;20028;-88
2023/01/09 07:59:07;;;;;;;4.65;1.63;;;;;;;;;;4951992;28;20008;-88
2023/01/09 08:01:33;;;;;;;7.97;1.60;;;;;;;;;;4945385;28;20039;-88
2023/01/09 08:04:03;;;;;;;7.35;1.70;;;;;;;;;;4949133;28;20015;-87
2023/01/09 08:06:31;;;;;;;4.82;1.50;;;;;;;;;;4946350;28;20026;-88
2023/01/09 08:08:57;;;;;;;5.93;1.30;;;;;;;;;;4965592;28;20008;-88
2023/01/09 08:11:23;;;;;;;8.65;1.42;;;;;;;;;;4945581;28;20027;-88
2023/01/09 08:13:49;;;;;;;5.60;1.13;;;;;;;;;;4964646;28;20061;-89
2023/01/09 08:16:16;;;;;;;8.55;1.55;;;;;;;;;;4962844;28;20039;-88
2023/01/09 08:18:42;;;;;;;10.20;1.70;;;;;;;;;;4946044;28;20039;-89
2023/01/09 08:21:10;;;;;;;9.30;1.60;;;;;;;;;;4948266;28;20043;-88
2023/01/09 08:23:36;;;;;;;10.80;3.00;;;;;;;;;;4947606;28;20068;-88
2023/01/09 08:26:02;;;;;;;4.72;1.60;;;;;;;;;;4948900;28;20023;-88
2023/01/09 08:28:27;;;;;;;10.05;2.30;;;7.60;99.90;;;;;;4947550;28;20708;-88
2023/01/09 08:30:53;;;;;;;7.97;2.47;;;;;;;;;;4947854;28;20015;-88
2023/01/09 08:33:19;;;;;;;6.00;1.67;;;;;;;;;;4966900;28;20015;-89
2023/01/09 08:35:45;;;;;;;9.02;1.90;;;;;;;;;;4943535;28;20059;-88
2023/01/09 08:38:11;;;;;;;5.95;1.70;;;;;;;;;;4945361;28;20056;-87
2023/01/09 08:40:38;;;;;;;5.72;1.55;;;;;;;;;;4963171;28;20071;-87
2023/01/09 08:48:46;;;;;;;5.53;1.30;;;;;;;;;;4967055;28;20047;-87
2023/01/09 08:51:12;;;;;;;5.95;1.48;;;7.70;99.90;;;;;;4932800;29;20024;-83
2023/01/09 08:53:39;;;;;;;7.18;1.50;;;;;;;;;;4948330;28;20525;-86
2023/01/09 08:56:05;;;;;;;5.53;1.40;;;;;;;;;;4950993;29;20038;-87
2023/01/09 08:58:31;;;;;;;4.68;1.17;;;;;;;;;;4962699;28;20019;-85
2023/01/09 09:00:58;;;;;;;8.77;2.00;;;7.40;99.90;;;;;;4938145;29;20046;-86
2023/01/09 09:03:24;;;;;;;5.10;1.30;;;;;;;;;;4940086;29;20464;-86
2023/01/09 09:05:50;;;;;;;7.35;2.20;;;;;;;;;;4952336;29;20059;-85
2023/01/09 09:08:16;;;;;;;4.40;1.50;;;;;;;;;;4945011;29;20092;-83
2023/01/09 09:10:42;;;;;;;5.45;1.67;;;;;;;;;;4969653;28;20027;-87
2023/01/09 09:13:08;;;;;;;5.22;1.23;;;;;;;;;;4962312;28;20023;-86
2023/01/09 09:15:36;;;;;;;5.38;1.83;;;;;;;;;;4946508;28;20015;-88
2023/01/09 09:18:05;;;;;;;9.23;1.95;;;7.80;99.90;;;;;;4965112;28;20447;-86
2023/01/09 09:20:34;;;;;;;8.68;1.95;;;7.70;99.90;;;;;;4946292;28;20024;-87
2023/01/09 09:23:00;;;;;;;7.60;1.63;;;;;;;;;;4965006;28;20123;-86
2023/01/09 09:25:26;;;;;;;6.97;1.40;;;;;;;;;;4939754;29;20104;-87
2023/01/09 09:27:54;;;;;;;5.15;1.50;;;;;;;;;;4947639;29;20063;-87
2023/01/09 09:30:41;;;;;;;5.70;1.50;;;7.80;99.90;;;;;;4952810;29;20034;-85
2023/01/09 09:33:08;;;;;;;10.98;4.40;;;7.80;99.90;;;;;;4967852;28;20043;-87
2023/01/09 09:35:34;;;;;;;6.38;1.38;;;7.40;99.90;;;;;;4964888;28;20026;-89
2023/01/09 09:38:02;;;;;;;8.40;1.63;;;7.80;99.90;;;;;;4949607;28;20063;-87
2023/01/09 09:44:41;;;;;;;5.95;1.83;;;7.70;99.90;;;;;;4948570;28;20008;-89
2023/01/09 09:47:30;;;;;;;8.85;1.98;;;7.80;99.90;;;;;;4950541;28;20054;-84
2023/01/09 09:50:39;;;;;;;5.80;2.08;;;7.80;99.90;;;;;;4950879;28;20023;-89
2023/01/09 09:53:05;;;;;;;7.82;2.00;;;;;;;;;;4948941;28;20027;-87
2023/01/09 09:55:33;;;;;;;5.75;1.77;;;7.80;99.90;;;;;;4953203;28;20091;-87
2023/01/09 09:58:04;;;;;;;6.25;1.73;;;7.90;99.90;;;;;;4970670;28;20031;-88
2023/01/09 10:00:30;;;;;;;5.93;1.70;;;;;;;;;;4934457;28;20027;-87
2023/01/09 10:03:05;;;;;;;7.53;2.13;;;7.80;99.90;;;;;;4949886;28;20031;-89
2023/01/09 10:05:41;;;;;;;7.88;2.55;;;7.90;99.90;;;;;;4966367;28;20030;-89
2023/01/09 10:08:18;;;;;;;7.43;1.80;;;7.80;99.90;;;;;;4948582;28;20027;-87
2023/01/09 10:10:52;;;;;;;7.13;1.92;;;7.80;99.90;;;;;;4936621;28;20104;-87
2023/01/09 10:16:50;;;;;;;5.75;1.90;;;7.80;99.90;;;;;;4939275;29;20036;-87
2023/01/09 10:19:51;;;;;;;4.82;1.70;;;7.80;99.90;;;;;;4968340;28;20498;-86
2023/01/09 10:22:29;;;;;;;8.20;3.22;;;7.80;99.90;;;;;;4967863;28;20037;-85
2023/01/09 10:25:21;;;;;;;7.53;1.90;;;7.90;99.90;;;;;;4949572;29;20031;-86
2023/01/09 10:28:16;;;;;;;3.95;1.70;;;7.80;99.90;;;;;;4942361;29;20495;-89
2023/01/09 10:30:51;;;;;;;5.28;1.75;;;8.00;99.90;;;;;;4922231;28;20067;-87
2023/01/09 10:33:57;;;;;;;6.55;1.95;;;8.00;99.90;;;;;;4956046;28;20046;-87
2023/01/09 10:36:53;;;;;;;6.15;1.60;;;8.00;99.90;;;;;;4930066;29;20042;-91
2023/01/09 10:39:51;;;;;;;4.70;1.25;;;8.00;99.90;;;;;;4950078;28;20019;-89
2023/01/09 10:42:36;;;;;;;4.72;1.67;;;7.90;99.90;;;;;;4957569;28;20043;-90
2023/01/09 10:45:02;;;;;;;3.55;1.30;;;;;;;;;;4948833;28;20030;-89
2023/01/09 10:47:45;;;;;;;4.00;1.38;;;7.90;99.90;;;;;;4954208;28;20071;-89
2023/01/09 10:50:23;;;;;;;3.88;1.33;;;7.90;99.90;;;;;;4951270;28;20015;-91
2023/01/09 10:52:53;;;;;;;6.45;1.83;;;7.90;99.90;;;;;;4953045;28;20051;-90
2023/01/09 10:55:19;;;;;;;4.57;1.55;;;;;;;;;;4929927;28;20020;-87
2023/01/09 10:57:51;;;;;;;5.50;1.38;;;8.10;99.90;;;;;;4951776;28;20039;-87
2023/01/09 11:00:21;;;;;;;7.03;1.15;;;8.10;99.90;;;;;;4948210;28;20020;-86
2023/01/09 11:02:48;;;;;;;8.57;1.20;;;8.20;99.90;;;;;;4946463;28;20070;-89
2023/01/09 11:05:28;;;;;;;4.20;1.25;;;8.20;99.90;;;;;;4915309;28;20042;-87
2023/01/09 11:08:12;;;;;;;;;;;8.20;99.90;;;;;;4959790;28;20047;-85
2023/01/09 11:11:02;;;;;;;2.85;0.80;;;8.10;99.90;;;;;;4968681;28;19950;-85
2023/01/09 11:13:33;;;;;;;3.63;0.80;;;8.10;99.90;;;;;;4945027;28;20028;-85
2023/01/09 11:16:24;;;;;;;4.20;1.20;;;8.20;99.90;;;;;;4928839;29;20044;-89
2023/01/09 11:18:58;;;;;;;2.75;0.90;;;8.20;99.90;;;;;;4948508;28;20010;-89
2023/01/09 11:21:24;;;;;;;3.40;0.98;;;;;;;;;;4938048;28;20140;-89
2023/01/09 11:24:17;;;;;;;3.72;1.02;;;8.30;99.90;;;;;;4962188;28;20040;-85
2023/01/09 11:26:43;;;;;;;5.50;1.17;;;;;;;;;;4952814;28;20023;-85
2023/01/09 11:29:27;;;;;;;3.75;0.93;;;8.40;99.90;;;;;;4950115;28;20022;-89
2023/01/09 11:32:58;;;;;;;3.05;0.90;;;8.40;99.90;;;;;;4977928;28;20034;-87
2023/01/09 11:39:23;;;;;;;7.70;1.50;;;8.60;99.90;;;;;;5028395;23;20073;-81
2023/01/09 11:42:18;;;;;;;5.93;1.08;;;8.60;99.90;;;;;;5006759;28;20033;-79
2023/01/09 11:44:47;;;;;;;3.33;0.90;;;;;;;;;;5001662;28;20082;-80
2023/01/09 11:47:39;;;;;;;4.03;0.95;;;8.90;99.90;;;;;;4987187;28;20031;-80
2023/01/09 11:50:29;;;;;;;5.28;1.20;;;8.90;99.90;;;;;;4970385;28;20038;-81
2023/01/09 11:53:17;;;;;;;6.47;1.58;;;8.90;99.90;;;;;;4996226;28;20019;-81
2023/01/09 11:55:44;;;;;;;3.65;0.93;;;9.00;99.90;;;;;;4994923;28;20038;-82
2023/01/09 11:58:19;;;;;;;4.60;1.33;;;8.90;99.90;;;;;;4988197;28;20091;-80
2023/01/09 12:00:46;;;;;;;6.72;1.10;;;;;;;;;;4979887;28;20099;-80
2023/01/09 12:03:12;;;;;;;5.10;1.15;;;;;;;;;;4979740;28;20091;-82
2023/01/09 12:06:07;;;;;;;4.45;1.00;;;8.50;99.90;;;;;;4995279;28;20034;-80
2023/01/09 12:08:42;;;;;;;2.20;0.70;;;;;;;;;;4972988;28;20035;-81
2023/01/09 12:11:09;;;;;;;3.08;0.80;;;;;;;;;;4993285;28;20026;-82
2023/01/09 12:14:08;;;;;;;3.80;1.23;;;8.20;99.90;;;;;;4964043;28;20027;-81
2023/01/09 12:16:54;;;;;;;2.53;0.77;;;8.30;99.90;;;;;;4987029;28;20023;-80
2023/01/09 12:19:53;;;;;;;4.32;0.88;;;8.20;99.90;;;;;;4981791;28;20066;-80
2023/01/09 12:22:22;;;;;;;2.97;0.82;;;;;;;;;;4995958;28;20065;-80
2023/01/09 12:25:16;;;;;;;9.20;1.35;;;8.00;99.90;;;;;;4994876;28;20103;-81
2023/01/09 12:27:45;;;;;;;9.25;0.90;;;8.00;99.90;;;;;;4982072;28;20079;-79
2023/01/09 12:30:42;;;;;;;1.67;0.77;;;8.10;99.90;;;;;;4959630;28;20031;-80
2023/01/09 12:33:19;;;;;;;6.10;0.90;;;8.10;99.90;;;;;;4965559;28;20524;-80
2023/01/09 12:36:21;;;;;;;4.55;1.20;;;8.10;99.90;;;;;;4980717;28;20054;-80
2023/01/09 12:38:58;;;;;;;5.25;1.25;;;8.10;99.90;;;;;;4971843;28;20045;-83
2023/01/09 12:41:36;;;;;;;4.18;1.05;;;8.20;99.90;;;;;;4988294;28;20042;-80
2023/01/09 12:44:40;;;;;;;4.40;1.00;;;8.20;99.90;;;;;;4990422;28;20096;-80
2023/01/09 12:47:06;;;;;;;2.80;0.77;;;;;;;;;;4987167;28;20100;-81
2023/01/09 12:49:42;;;;;;;5.07;1.27;;;8.20;99.90;;;;;;4999637;28;20031;-80
2023/01/09 12:52:16;;;;;;;5.53;1.38;;;8.20;99.90;;;;;;4994889;28;20480;-81
2023/01/09 12:55:14;;;;;;;3.35;1.00;;;8.30;99.90;;;;;;4991822;28;20023;-80
2023/01/09 12:57:44;;;;;;;3.10;1.15;;;8.40;99.90;;;;;;4994222;28;20072;-81
2023/01/09 13:00:31;;;;;;;3.38;1.02;;;8.50;99.90;;;;;;4987025;28;20134;-80
2023/01/09 13:03:25;;;;;;;6.22;1.08;;;8.60;99.90;;;;;;4982189;28;20035;-81
2023/01/09 13:05:52;;;;;;;6.63;0.95;;;8.60;99.90;;;;;;4995248;28;20027;-80
2023/01/09 13:08:18;;;;;;;5.18;1.50;;;;;;;;;;4957280;28;20022;-81
2023/01/09 13:10:57;;;;;;;4.75;0.93;;;8.70;99.90;;;;;;4990341;28;20026;-81
2023/01/09 13:13:48;;;;;;;7.00;3.30;;;8.70;99.90;;;;;;4983412;28;20138;-83
2023/01/09 13:16:25;;;;;;;;;;;8.60;99.90;;;;;;4989339;28;20017;-81
2023/01/09 13:18:58;;;;;;;2.92;0.80;;;8.60;99.90;;;;;;4980637;28;19945;-84
2023/01/09 13:21:28;;;;;;;4.07;1.10;;;8.70;99.90;;;;;;4959156;28;20066;-80
2023/01/09 13:24:21;;;;;;;2.58;0.82;;;8.70;99.90;;;;;;4997105;28;20035;-81
2023/01/09 13:26:50;;;;;;;4.78;1.10;;;8.70;99.90;;;;;;4989036;28;20027;-82
2023/01/09 13:29:42;;;;;;;3.67;0.95;;;8.70;99.90;;;;;;4996623;28;20094;-79
